Bani, Dominican Republic
Current Conditions -  °F | °C
As of 4:00 PM on Friday 21 Nov 2014 (Local Time) from MDSD Reporting Station
Scattered Clouds Scattered Clouds  
Wind Chill: 84°   Ceiling: Unl
Heat Index: 92°   Visibility: 6mi
Dew Point: 75°   Wind: 9mph
Humidity: 74%   Direction: 150°SSE
Pressure: 29.91"   Gusts: NA
Location:  18.29°N, 70.33°W
Report Text: MDSD 212000Z 15008KT 9999 FEW020CB SCT020 29/24 Q1013 CB/NW
Loading
Personal Weather Stations






























Interactive Weather Map New forecast layout! Learn more

10-Day Weather Forecast

Advertisements
Track Severe Weather on mobile